createdAt,value
2018-05-27T00:00:01.155Z,15.91
2018-05-27T00:01:01.147Z,15.89
2018-05-27T00:02:00.889Z,15.91
2018-05-27T00:03:00.881Z,15.83
2018-05-27T00:04:01.130Z,15.89
2018-05-27T00:05:01.135Z,15.92
2018-05-27T00:06:00.866Z,15.88
2018-05-27T00:07:01.133Z,15.83
2018-05-27T00:08:01.116Z,15.91
2018-05-27T00:09:01.108Z,15.75
2018-05-27T00:10:01.111Z,15.86
2018-05-27T00:11:00.854Z,15.8
2018-05-27T00:12:01.098Z,15.7
2018-05-27T00:13:01.096Z,15.73
2018-05-27T00:14:01.198Z,15.77
2018-05-27T00:15:00.830Z,15.73
2018-05-27T00:16:01.076Z,15.74
2018-05-27T00:17:00.811Z,15.75
2018-05-27T00:18:01.066Z,15.73
2018-05-27T00:19:00.806Z,15.78
2018-05-27T00:20:01.067Z,15.8
2018-05-27T00:21:00.794Z,15.78
2018-05-27T00:22:01.051Z,15.73
2018-05-27T00:23:01.042Z,15.75
2018-05-27T00:24:01.043Z,15.67
2018-05-27T00:25:00.777Z,15.71
2018-05-27T00:26:00.773Z,15.6
2018-05-27T00:27:01.025Z,15.7
2018-05-27T00:28:01.021Z,15.68
2018-05-27T00:29:00.761Z,15.62
2018-05-27T00:30:00.753Z,15.63
2018-05-27T00:31:01.006Z,15.62
2018-05-27T00:32:00.486Z,15.62
2018-05-27T00:33:00.998Z,15.47
2018-05-27T00:34:00.995Z,15.53
2018-05-27T00:35:00.727Z,15.52
2018-05-27T00:36:00.983Z,15.45
2018-05-27T00:37:00.972Z,15.4
2018-05-27T00:38:00.717Z,15.45
2018-05-27T00:39:00.965Z,15.44
2018-05-27T00:40:00.978Z,15.45
2018-05-27T00:41:00.961Z,15.41
2018-05-27T00:42:00.962Z,15.41
2018-05-27T00:43:00.691Z,15.44
2018-05-27T00:44:00.428Z,15.38
2018-05-27T00:45:00.955Z,15.45
2018-05-27T00:46:00.938Z,15.45
2018-05-27T00:47:00.930Z,15.44
2018-05-27T00:48:00.667Z,15.44
2018-05-27T00:49:00.658Z,15.37
2018-05-27T00:50:01.106Z,15.41
2018-05-27T00:51:00.396Z,15.41
2018-05-27T00:52:00.904Z,15.43
2018-05-27T00:53:00.901Z,15.44
2018-05-27T00:54:00.637Z,15.41
2018-05-27T00:55:00.640Z,15.41
2018-05-27T00:56:00.629Z,15.41
2018-05-27T00:57:00.883Z,15.33
2018-05-27T00:58:00.875Z,15.37
2018-05-27T00:59:00.871Z,15.37
2018-05-27T01:00:00.867Z,15.41
2018-05-27T01:01:00.603Z,15.27
2018-05-27T01:02:00.864Z,15.37
2018-05-27T01:03:00.852Z,15.33
2018-05-27T01:04:00.327Z,15.34
2018-05-27T01:05:00.589Z,15.18
2018-05-27T01:06:00.578Z,15.22
2018-05-27T01:07:00.571Z,15.22
2018-05-27T01:08:00.573Z,15.18
2018-05-27T01:09:00.829Z,15.13
2018-05-27T01:10:00.558Z,15.13
2018-05-27T01:11:00.551Z,15.19
2018-05-27T01:12:00.291Z,15.13
2018-05-27T01:13:00.542Z,15.2
2018-05-27T01:14:00.794Z,15.13
2018-05-27T01:15:00.803Z,15.1
2018-05-27T01:16:00.529Z,15.13
2018-05-27T01:17:00.268Z,15.18
2018-05-27T01:18:00.530Z,15.1
2018-05-27T01:19:00.767Z,15.08
2018-05-27T01:20:00.518Z,15
2018-05-27T01:21:00.504Z,15.05
2018-05-27T01:22:00.818Z,15.04
2018-05-27T01:23:00.750Z,15.04
2018-05-27T01:24:00.743Z,15.01
2018-05-27T01:25:00.479Z,15.04
2018-05-27T01:26:00.488Z,15.04
2018-05-27T01:27:00.475Z,15.05
2018-05-27T01:28:00.719Z,15.01
2018-05-27T01:29:00.464Z,14.97
2018-05-27T01:30:00.712Z,15.02
2018-05-27T01:31:00.196Z,15.02
2018-05-27T01:32:00.917Z,15
2018-05-27T01:33:00.706Z,14.94
2018-05-27T01:34:00.691Z,15.02
2018-05-27T01:35:00.429Z,14.97
2018-05-27T01:36:00.692Z,15.02
2018-05-27T01:37:00.681Z,15.02
2018-05-27T01:38:00.691Z,15.05
2018-05-27T01:39:00.673Z,14.98
2018-05-27T01:40:00.661Z,15.01
2018-05-27T01:41:00.408Z,15.01
2018-05-27T01:42:00.657Z,15
2018-05-27T01:43:00.393Z,15.01
2018-05-27T01:44:00.652Z,15.01
2018-05-27T01:45:00.381Z,15.01
2018-05-27T01:46:00.377Z,15.02
2018-05-27T01:47:00.631Z,15.01
2018-05-27T01:48:00.627Z,15.05
2018-05-27T01:49:00.363Z,15.04
2018-05-27T01:50:00.359Z,15.05
2018-05-27T01:51:00.603Z,15.05
2018-05-27T01:52:00.599Z,15.01
2018-05-27T01:53:00.601Z,15.07
2018-05-27T01:54:00.603Z,15.05
2018-05-27T01:55:00.590Z,15.01
2018-05-27T01:56:00.583Z,15.05
2018-05-27T01:57:00.325Z,15.01
2018-05-27T01:58:00.058Z,15.05
2018-05-27T01:59:00.055Z,15.01
2018-05-27T02:00:00.559Z,15.04
2018-05-27T02:01:00.559Z,15.08
2018-05-27T02:02:00.550Z,15.04
2018-05-27T02:03:00.549Z,15.05
2018-05-27T02:04:00.537Z,15.1
2018-05-27T02:05:00.278Z,15.18
2018-05-27T02:06:00.273Z,15.12
2018-05-27T02:07:00.270Z,15.13
2018-05-27T02:08:00.517Z,15.08
2018-05-27T02:09:00.514Z,14.98
2018-05-27T02:10:00.523Z,15.02
2018-05-27T02:11:00.250Z,15.07
2018-05-27T02:12:00.514Z,15.01
2018-05-27T02:13:00.500Z,15.04
2018-05-27T02:14:00.228Z,15.12
2018-05-27T02:15:00.483Z,15.01
2018-05-27T02:16:00.221Z,15.05
2018-05-27T02:17:00.474Z,15.12
2018-05-27T02:18:00.466Z,15.05
2018-05-27T02:19:00.487Z,15.05
2018-05-27T02:20:00.458Z,15.05
2018-05-27T02:21:00.450Z,15.07
2018-05-27T02:22:00.450Z,15.07
2018-05-27T02:23:00.443Z,15.05
2018-05-27T02:24:00.184Z,15.05
2018-05-27T02:25:00.440Z,15.08
2018-05-27T02:26:00.423Z,15.02
2018-05-27T02:27:00.417Z,15.05
2018-05-27T02:28:00.155Z,15.04
2018-05-27T02:29:00.412Z,15.07
2018-05-27T02:30:00.149Z,15.04
2018-05-27T02:31:00.405Z,15.07
2018-05-27T02:32:00.400Z,15.05
2018-05-27T02:33:00.144Z,15.04
2018-05-27T02:34:00.396Z,15.07
2018-05-27T02:35:00.383Z,15.04
2018-05-27T02:36:00.379Z,15.05
2018-05-27T02:37:00.111Z,14.94
2018-05-27T02:38:00.364Z,14.97
2018-05-27T02:39:00.355Z,15.04
2018-05-27T02:40:00.355Z,15.01
2018-05-27T02:41:00.351Z,15
2018-05-27T02:42:00.096Z,15.02
2018-05-27T02:43:00.336Z,15.01
2018-05-27T02:44:00.075Z,14.97
2018-05-27T02:45:00.081Z,14.94
2018-05-27T02:46:00.324Z,14.97
2018-05-27T02:47:00.318Z,14.9
2018-05-27T02:48:00.314Z,14.86
2018-05-27T02:49:00.307Z,14.86
2018-05-27T02:50:00.050Z,14.85
2018-05-27T02:51:00.041Z,14.83
2018-05-27T02:52:00.298Z,14.82
2018-05-27T02:53:00.291Z,14.7
2018-05-27T02:54:00.022Z,14.77
2018-05-27T02:55:00.019Z,14.69
2018-05-27T02:56:00.269Z,14.63
2018-05-27T02:57:00.006Z,14.7
2018-05-27T02:58:00.005Z,14.63
2018-05-27T02:58:59.997Z,14.61
2018-05-27T02:59:59.990Z,14.48
2018-05-27T03:00:59.983Z,14.49
2018-05-27T03:01:59.984Z,14.57
2018-05-27T03:02:59.996Z,14.49
2018-05-27T03:04:00.222Z,14.49
2018-05-27T03:04:59.704Z,14.39
2018-05-27T03:06:00.214Z,14.45
2018-05-27T03:06:59.953Z,14.33
2018-05-27T03:08:00.210Z,14.33
2018-05-27T03:09:00.200Z,14.31
2018-05-27T03:10:00.208Z,14.28
2018-05-27T03:10:59.928Z,14.26
2018-05-27T03:11:59.923Z,14.19
2018-05-27T03:12:59.923Z,14.13
2018-05-27T03:14:00.166Z,14.12
2018-05-27T03:15:00.169Z,14.13
2018-05-27T03:16:00.158Z,14.15
2018-05-27T03:17:00.162Z,14.05
2018-05-27T03:18:00.150Z,14.06
2018-05-27T03:19:00.149Z,13.97
2018-05-27T03:20:00.135Z,14.01
2018-05-27T03:20:59.870Z,13.93
2018-05-27T03:22:00.118Z,13.94
2018-05-27T03:22:59.857Z,13.87
2018-05-27T03:23:59.853Z,13.81
2018-05-27T03:24:59.847Z,13.84
2018-05-27T03:25:59.584Z,13.81
2018-05-27T03:27:00.090Z,13.7
2018-05-27T03:27:59.830Z,13.75
2018-05-27T03:29:00.090Z,13.69
2018-05-27T03:29:59.812Z,13.7
2018-05-27T03:30:59.814Z,13.72
2018-05-27T03:31:59.811Z,13.75
2018-05-27T03:32:59.801Z,13.7
2018-05-27T03:33:59.794Z,13.66
2018-05-27T03:35:00.043Z,13.62
2018-05-27T03:35:59.783Z,13.58
2018-05-27T03:36:59.777Z,13.57
2018-05-27T03:38:00.030Z,13.6
2018-05-27T03:38:59.765Z,13.55
2018-05-27T03:39:59.753Z,13.6
2018-05-27T03:40:59.490Z,13.57
2018-05-27T03:41:59.742Z,13.53
2018-05-27T03:42:59.743Z,13.62
2018-05-27T03:43:59.993Z,13.57
2018-05-27T03:44:59.723Z,13.58
2018-05-27T03:45:59.721Z,13.53
2018-05-27T03:46:59.714Z,13.55
2018-05-27T03:47:59.969Z,13.57
2018-05-27T03:48:59.706Z,13.53
2018-05-27T03:49:59.437Z,13.55
2018-05-27T03:50:59.952Z,13.55
2018-05-27T03:51:59.940Z,13.57
2018-05-27T03:52:59.942Z,13.54
2018-05-27T03:53:59.414Z,13.55
2018-05-27T03:54:59.927Z,13.65
2018-05-27T03:55:59.659Z,13.63
2018-05-27T03:56:59.395Z,13.58
2018-05-27T03:57:59.906Z,13.57
2018-05-27T03:58:59.640Z,13.57
2018-05-27T03:59:59.896Z,13.51
2018-05-27T04:00:59.885Z,13.65
2018-05-27T04:01:59.872Z,13.55
2018-05-27T04:02:59.617Z,13.62
2018-05-27T04:03:59.349Z,13.69
2018-05-27T04:04:59.601Z,13.63
2018-05-27T04:05:59.602Z,13.63
2018-05-27T04:06:59.590Z,13.7
2018-05-27T04:07:59.580Z,13.62
2018-05-27T04:08:59.322Z,13.68
2018-05-27T04:09:59.829Z,13.57
2018-05-27T04:10:59.568Z,13.69
2018-05-27T04:11:59.821Z,13.63
2018-05-27T04:12:59.805Z,13.72
2018-05-27T04:13:59.804Z,13.75
2018-05-27T04:14:59.797Z,13.68
2018-05-27T04:15:59.798Z,13.68
2018-05-27T04:16:59.790Z,13.72
2018-05-27T04:17:59.781Z,13.69
2018-05-27T04:18:59.520Z,13.7
2018-05-27T04:19:59.775Z,13.81
2018-05-27T04:20:59.505Z,13.75
2018-05-27T04:21:59.495Z,13.83
2018-05-27T04:22:59.490Z,13.79
2018-05-27T04:23:59.752Z,13.78
2018-05-27T04:24:59.738Z,13.75
2018-05-27T04:25:59.743Z,13.84
2018-05-27T04:26:59.468Z,13.87
2018-05-27T04:27:59.458Z,13.9
2018-05-27T04:28:59.710Z,13.87
2018-05-27T04:29:59.708Z,13.86
2018-05-27T04:30:59.445Z,13.9
2018-05-27T04:31:59.440Z,14.01
2018-05-27T04:32:59.685Z,13.9
2018-05-27T04:33:59.424Z,13.99
2018-05-27T04:34:59.674Z,13.95
2018-05-27T04:35:59.416Z,13.94
2018-05-27T04:36:59.406Z,14.06
2018-05-27T04:37:59.394Z,14.12
2018-05-27T04:38:59.397Z,14.06
2018-05-27T04:39:59.388Z,14.12
2018-05-27T04:40:59.122Z,14.15
2018-05-27T04:41:59.375Z,14.09
2018-05-27T04:42:59.372Z,14.16
2018-05-27T04:43:59.621Z,14.2
2018-05-27T04:44:59.364Z,14.21
2018-05-27T04:45:59.605Z,14.3
2018-05-27T04:46:59.601Z,14.31
2018-05-27T04:47:59.612Z,14.27
2018-05-27T04:48:59.333Z,14.3
2018-05-27T04:49:59.584Z,14.44
2018-05-27T04:50:59.591Z,14.52
2018-05-27T04:51:59.315Z,14.51
2018-05-27T04:52:59.357Z,14.51
2018-05-27T04:53:59.557Z,14.49
2018-05-27T04:54:59.559Z,14.59
2018-05-27T04:55:59.035Z,14.61
2018-05-27T04:56:59.546Z,14.79
2018-05-27T04:57:59.278Z,14.83
2018-05-27T04:58:59.293Z,14.82
2018-05-27T04:59:59.524Z,14.82
2018-05-27T05:00:59.272Z,14.93
2018-05-27T05:01:59.255Z,15.04
2018-05-27T05:02:59.511Z,15.02
2018-05-27T05:03:59.500Z,15.07
2018-05-27T05:04:59.495Z,15.15
2018-05-27T05:05:59.233Z,15.12
2018-05-27T05:06:59.488Z,15.23
2018-05-27T05:07:59.222Z,15.33
2018-05-27T05:08:59.219Z,15.34
2018-05-27T05:09:59.467Z,15.41
2018-05-27T05:10:59.467Z,15.41
2018-05-27T05:11:59.461Z,15.51
2018-05-27T05:12:59.453Z,15.59
2018-05-27T05:13:59.192Z,15.62
2018-05-27T05:14:58.965Z,15.71
2018-05-27T05:15:59.436Z,15.75
2018-05-27T05:16:59.434Z,15.91
2018-05-27T05:17:59.428Z,15.89
2018-05-27T05:18:59.417Z,15.96
2018-05-27T05:19:59.418Z,16.08
2018-05-27T05:20:59.156Z,16.14
2018-05-27T05:21:59.487Z,16.25
2018-05-27T05:22:59.147Z,16.3
2018-05-27T05:23:59.136Z,16.29
2018-05-27T05:24:59.399Z,16.45
2018-05-27T05:25:58.872Z,16.54
2018-05-27T05:26:58.874Z,16.48
2018-05-27T05:27:59.120Z,16.57
2018-05-27T05:28:59.379Z,16.65
2018-05-27T05:29:59.373Z,16.65
2018-05-27T05:30:59.108Z,16.76
2018-05-27T05:31:59.364Z,16.73
2018-05-27T05:32:59.103Z,16.82
2018-05-27T05:33:59.358Z,16.82
2018-05-27T05:34:59.349Z,16.81
2018-05-27T05:35:59.085Z,16.95
2018-05-27T05:36:58.823Z,16.88
2018-05-27T05:37:59.336Z,17.07
2018-05-27T05:38:59.327Z,17
2018-05-27T05:39:59.329Z,17.13
2018-05-27T05:40:59.324Z,17.03
2018-05-27T05:41:59.316Z,17.07
2018-05-27T05:42:59.316Z,17.1
2018-05-27T05:43:59.057Z,17.13
2018-05-27T05:44:59.050Z,17.21
2018-05-27T05:45:59.299Z,17.32
2018-05-27T05:46:59.038Z,17.28
2018-05-27T05:47:58.776Z,17.5
2018-05-27T05:48:59.292Z,17.55
2018-05-27T05:49:59.028Z,17.57
2018-05-27T05:50:59.281Z,17.68
2018-05-27T05:51:59.276Z,17.71
2018-05-27T05:52:59.279Z,17.8
2018-05-27T05:53:59.016Z,17.88
2018-05-27T05:54:59.268Z,17.95
2018-05-27T05:55:59.005Z,18.02
2018-05-27T05:56:58.747Z,17.96
2018-05-27T05:57:59.050Z,18.1
2018-05-27T05:58:59.000Z,18.05
2018-05-27T05:59:59.250Z,18.08
2018-05-27T06:00:58.730Z,18.06
2018-05-27T06:01:58.984Z,18.11
2018-05-27T06:02:58.979Z,18.01
2018-05-27T06:03:59.241Z,17.96
2018-05-27T06:04:59.236Z,18.01
2018-05-27T06:05:59.229Z,18.01
2018-05-27T06:06:58.711Z,18.02
2018-05-27T06:07:59.217Z,18.05
2018-05-27T06:08:58.968Z,18.1
2018-05-27T06:09:59.219Z,18.05
2018-05-27T06:10:58.956Z,18.1
2018-05-27T06:11:59.212Z,18.03
2018-05-27T06:12:59.203Z,18.06
2018-05-27T06:13:58.948Z,18.02
2018-05-27T06:14:58.945Z,18.08
2018-05-27T06:15:59.204Z,18.16
2018-05-27T06:16:58.938Z,18.14
2018-05-27T06:17:59.202Z,18.14
2018-05-27T06:18:58.933Z,18.27
2018-05-27T06:19:59.186Z,18.21
2018-05-27T06:20:58.931Z,18.32
2018-05-27T06:21:58.928Z,18.27
2018-05-27T06:22:59.176Z,18.23
2018-05-27T06:23:58.915Z,18.38
2018-05-27T06:24:58.659Z,18.35
2018-05-27T06:25:58.908Z,18.36
2018-05-27T06:26:58.907Z,18.35
2018-05-27T06:27:58.905Z,18.49
2018-05-27T06:28:58.918Z,18.54
2018-05-27T06:29:58.905Z,18.54
2018-05-27T06:30:58.900Z,18.49
2018-05-27T06:31:58.657Z,18.63
2018-05-27T06:32:59.155Z,18.79
2018-05-27T06:33:58.632Z,18.91
2018-05-27T06:34:59.151Z,19.12
2018-05-27T06:35:59.145Z,19.3
2018-05-27T06:36:58.882Z,19.6
2018-05-27T06:37:58.887Z,19.75
2018-05-27T06:38:59.135Z,20.01
2018-05-27T06:39:59.139Z,20.25
2018-05-27T06:40:59.126Z,20.61
2018-05-27T06:41:58.615Z,20.96
2018-05-27T06:42:58.871Z,21.53
2018-05-27T06:43:59.135Z,22.14
2018-05-27T06:44:59.123Z,22.57
2018-05-27T06:45:58.869Z,22.97
2018-05-27T06:46:58.883Z,23.6
2018-05-27T06:47:59.128Z,24.15
2018-05-27T06:48:59.119Z,24.42
2018-05-27T06:49:59.119Z,24.61
2018-05-27T06:50:58.859Z,24.61
2018-05-27T06:51:58.861Z,24.61
2018-05-27T06:52:58.864Z,24.63
2018-05-27T06:53:59.120Z,24.74
2018-05-27T06:54:59.130Z,25.01
2018-05-27T06:55:58.865Z,25.22
2018-05-27T06:56:58.869Z,25.6
2018-05-27T06:57:58.868Z,25.93
2018-05-27T06:58:59.126Z,26.38
2018-05-27T06:59:58.870Z,26.79
2018-05-27T07:00:58.868Z,26.97
2018-05-27T07:01:58.873Z,27.04
2018-05-27T07:02:59.134Z,27.08
2018-05-27T07:03:59.135Z,27.21
2018-05-27T07:04:59.022Z,27.36
2018-05-27T07:05:58.886Z,27.37
2018-05-27T07:06:59.146Z,27.43
2018-05-27T07:07:59.145Z,27.57
2018-05-27T07:08:58.889Z,27.61
2018-05-27T07:09:58.635Z,27.42
2018-05-27T07:10:59.159Z,27.31
2018-05-27T07:11:58.644Z,27.34
2018-05-27T07:12:58.903Z,27.3
2018-05-27T07:13:59.163Z,27.42
2018-05-27T07:14:59.169Z,27.79
2018-05-27T07:15:59.234Z,27.79
2018-05-27T07:16:58.968Z,27.83
2018-05-27T07:17:58.914Z,28.06
2018-05-27T07:18:58.917Z,28.36
2018-05-27T07:19:59.183Z,28.78
2018-05-27T07:20:58.937Z,29.1
2018-05-27T07:21:59.188Z,29.48
2018-05-27T07:22:59.195Z,29.66
2018-05-27T07:23:58.941Z,29.75
2018-05-27T07:24:59.202Z,29.81
2018-05-27T07:25:58.948Z,29.82
2018-05-27T07:26:58.963Z,30.03
2018-05-27T07:27:59.224Z,30.14
2018-05-27T07:28:59.232Z,30.14
2018-05-27T07:29:58.983Z,30.22
2018-05-27T07:30:58.974Z,30.24
2018-05-27T07:31:58.985Z,30.18
2018-05-27T07:32:59.246Z,30.35
2018-05-27T07:33:59.254Z,30.63
2018-05-27T07:34:59.256Z,30.86
2018-05-27T07:35:59.003Z,31.06
2018-05-27T07:36:59.012Z,31.45
2018-05-27T07:37:59.280Z,31.44
2018-05-27T07:38:59.029Z,31.7
2018-05-27T07:39:59.327Z,31.78
2018-05-27T07:40:59.038Z,31.91
2018-05-27T07:41:59.048Z,32.03
2018-05-27T07:42:58.790Z,31.95
2018-05-27T07:43:59.314Z,31.94
2018-05-27T07:44:59.320Z,32.01
2018-05-27T07:45:59.069Z,32.05
2018-05-27T07:46:59.081Z,32.28
2018-05-27T07:47:59.343Z,32.38
2018-05-27T07:48:59.348Z,32.67
2018-05-27T07:49:59.096Z,32.76
2018-05-27T07:50:59.109Z,32.93
2018-05-27T07:51:59.116Z,33.06
2018-05-27T07:52:59.388Z,33.26
2018-05-27T07:53:59.384Z,33.16
2018-05-27T07:54:59.390Z,33.2
2018-05-27T07:55:59.403Z,33.2
2018-05-27T07:56:59.165Z,33.09
2018-05-27T07:57:59.424Z,33.06
2018-05-27T07:58:59.422Z,32.91
2018-05-27T07:59:58.915Z,32.74
2018-05-27T08:00:58.924Z,32.39
2018-05-27T08:01:59.193Z,32.15
2018-05-27T08:02:59.193Z,31.86
2018-05-27T08:03:59.466Z,31.68
2018-05-27T08:04:59.472Z,31.41
2018-05-27T08:05:59.220Z,31.34
2018-05-27T08:06:59.222Z,31.33
2018-05-27T08:07:59.490Z,31.07
2018-05-27T08:08:59.499Z,30.85
2018-05-27T08:09:59.244Z,30.81
2018-05-27T08:10:58.992Z,30.62
2018-05-27T08:11:59.263Z,30.32
2018-05-27T08:12:59.527Z,30.04
2018-05-27T08:13:59.530Z,29.84
2018-05-27T08:14:59.539Z,29.66
2018-05-27T08:15:59.283Z,29.14
2018-05-27T08:16:59.289Z,28.79
2018-05-27T08:17:59.557Z,28.6
2018-05-27T08:18:59.560Z,28.2
2018-05-27T08:19:59.639Z,27.96
2018-05-27T08:20:59.572Z,27.75
2018-05-27T08:21:59.574Z,27.49
2018-05-27T08:22:59.321Z,27.33
2018-05-27T08:23:59.588Z,27.21
2018-05-27T08:24:59.436Z,27.15
2018-05-27T08:25:59.594Z,26.97
2018-05-27T08:26:59.609Z,26.93
2018-05-27T08:27:59.390Z,26.91
2018-05-27T08:28:59.364Z,26.86
2018-05-27T08:29:59.623Z,26.72
2018-05-27T08:30:59.377Z,26.69
2018-05-27T08:31:59.371Z,26.6
2018-05-27T08:32:59.375Z,26.56
2018-05-27T08:33:59.636Z,26.53
2018-05-27T08:34:59.701Z,26.53
2018-05-27T08:35:59.651Z,26.56
2018-05-27T08:36:59.393Z,26.57
2018-05-27T08:37:59.660Z,26.47
2018-05-27T08:38:59.403Z,26.47
2018-05-27T08:39:59.670Z,26.5
2018-05-27T08:40:59.668Z,26.6
2018-05-27T08:41:59.674Z,26.52
2018-05-27T08:42:59.682Z,26.6
2018-05-27T08:43:59.682Z,26.59
2018-05-27T08:44:59.686Z,26.61
2018-05-27T08:45:59.438Z,26.64
2018-05-27T08:46:59.437Z,26.59
2018-05-27T08:47:59.700Z,26.59
2018-05-27T08:48:59.538Z,26.61
2018-05-27T08:49:59.453Z,26.71
2018-05-27T08:50:59.714Z,26.74
2018-05-27T08:51:59.461Z,26.81
2018-05-27T08:52:59.727Z,26.87
2018-05-27T08:53:59.472Z,27.01
2018-05-27T08:54:59.474Z,27.12
2018-05-27T08:55:59.743Z,27.12
2018-05-27T08:56:59.483Z,27.26
2018-05-27T08:57:59.744Z,27.37
2018-05-27T08:58:59.492Z,27.49
2018-05-27T08:59:59.239Z,27.43
2018-05-27T09:00:59.507Z,27.51
2018-05-27T09:01:59.763Z,27.52
2018-05-27T09:02:59.515Z,27.55
2018-05-27T09:03:59.516Z,27.71
2018-05-27T09:04:59.519Z,27.69
2018-05-27T09:05:59.523Z,27.75
2018-05-27T09:06:59.786Z,27.8
2018-05-27T09:07:59.279Z,27.64
2018-05-27T09:08:59.665Z,27.69
2018-05-27T09:09:59.802Z,27.65
2018-05-27T09:10:59.811Z,27.76
2018-05-27T09:11:59.553Z,27.66
2018-05-27T09:12:59.813Z,27.52
2018-05-27T09:13:59.828Z,27.53
2018-05-27T09:14:59.825Z,27.62
2018-05-27T09:15:59.573Z,27.52
2018-05-27T09:16:59.576Z,27.51
2018-05-27T09:17:59.840Z,27.46
2018-05-27T09:18:59.585Z,27.27
2018-05-27T09:19:59.849Z,27.13
2018-05-27T09:20:59.597Z,27.01
2018-05-27T09:21:59.858Z,26.94
2018-05-27T09:22:59.605Z,26.81
2018-05-27T09:23:59.612Z,26.75
2018-05-27T09:25:00.114Z,26.49
2018-05-27T09:25:59.874Z,26.31
2018-05-27T09:26:59.879Z,26.12
2018-05-27T09:27:59.369Z,26.06
2018-05-27T09:28:59.887Z,25.88
2018-05-27T09:29:59.892Z,25.91
2018-05-27T09:30:59.719Z,25.81
2018-05-27T09:31:59.898Z,25.78
2018-05-27T09:32:59.650Z,25.79
2018-05-27T09:33:59.908Z,25.84
2018-05-27T09:34:59.913Z,25.76
2018-05-27T09:35:59.920Z,25.81
2018-05-27T09:36:59.918Z,25.66
2018-05-27T09:37:59.666Z,25.64
2018-05-27T09:38:59.931Z,25.57
2018-05-27T09:39:59.931Z,25.34
2018-05-27T09:40:59.680Z,25.27
2018-05-27T09:41:59.681Z,25.14
2018-05-27T09:42:59.690Z,25.12
2018-05-27T09:43:59.688Z,25.01
2018-05-27T09:44:59.703Z,25.01
2018-05-27T09:45:59.705Z,24.83
2018-05-27T09:46:59.696Z,24.83
2018-05-27T09:47:59.967Z,24.7
2018-05-27T09:48:59.700Z,24.61
2018-05-27T09:49:59.708Z,24.42
2018-05-27T09:50:59.457Z,24.33
2018-05-27T09:51:59.972Z,24.29
2018-05-27T09:52:59.714Z,24.22
2018-05-27T09:53:59.979Z,24.21
2018-05-27T09:54:59.464Z,24.32
2018-05-27T09:55:59.465Z,24.3
2018-05-27T09:56:59.728Z,24.27
2018-05-27T09:58:00.266Z,24.27
2018-05-27T09:58:59.736Z,24.21
2018-05-27T09:59:59.797Z,24.26
2018-05-27T10:00:59.739Z,24.18
2018-05-27T10:01:59.996Z,24.18
2018-05-27T10:03:00.005Z,24.17
2018-05-27T10:04:00.001Z,24.12
2018-05-27T10:04:59.495Z,24.12
2018-05-27T10:06:00.168Z,24.17
2018-05-27T10:06:59.498Z,24.24
2018-05-27T10:08:00.020Z,24.42
2018-05-27T10:09:00.023Z,24.64
2018-05-27T10:10:00.034Z,24.89
2018-05-27T10:11:00.019Z,25.11
2018-05-27T10:11:59.762Z,25.3
2018-05-27T10:13:00.032Z,25.37
2018-05-27T10:13:59.771Z,25.66
2018-05-27T10:15:00.029Z,25.76
2018-05-27T10:16:00.030Z,25.91
2018-05-27T10:17:00.031Z,26.04
2018-05-27T10:17:59.785Z,26
2018-05-27T10:18:59.859Z,25.88
2018-05-27T10:19:59.537Z,25.84
2018-05-27T10:20:59.790Z,25.81
2018-05-27T10:21:59.792Z,25.84
2018-05-27T10:22:59.796Z,25.84
2018-05-27T10:23:59.539Z,25.91
2018-05-27T10:24:59.804Z,26.06
2018-05-27T10:26:00.312Z,26.23
2018-05-27T10:27:00.064Z,26.26
2018-05-27T10:28:00.074Z,26.24
2018-05-27T10:29:00.124Z,26.17
2018-05-27T10:29:59.813Z,26.15
2018-05-27T10:30:59.557Z,26.07
2018-05-27T10:31:59.819Z,25.93
2018-05-27T10:33:00.194Z,25.74
2018-05-27T10:33:59.824Z,25.6
2018-05-27T10:34:59.833Z,25.49
2018-05-27T10:36:00.097Z,25.52
2018-05-27T10:36:59.832Z,25.49
2018-05-27T10:37:59.582Z,25.52
2018-05-27T10:39:00.105Z,25.54
2018-05-27T10:39:59.849Z,25.63
2018-05-27T10:41:00.104Z,25.67
2018-05-27T10:42:00.103Z,25.67
2018-05-27T10:42:59.853Z,25.62
2018-05-27T10:43:59.863Z,25.63
2018-05-27T10:45:00.119Z,25.51
2018-05-27T10:46:00.115Z,25.48
2018-05-27T10:46:59.861Z,25.33
2018-05-27T10:47:59.863Z,25.26
2018-05-27T10:49:00.133Z,25.23
2018-05-27T10:50:00.628Z,25.3
2018-05-27T10:50:59.612Z,25.37
2018-05-27T10:51:59.878Z,25.54
2018-05-27T10:52:59.883Z,25.62
2018-05-27T10:54:00.149Z,25.62
2018-05-27T10:55:00.152Z,25.64
2018-05-27T10:56:00.145Z,25.75
2018-05-27T10:57:00.152Z,25.89
2018-05-27T10:58:00.147Z,26.09
2018-05-27T10:58:59.902Z,26.22
2018-05-27T11:00:00.337Z,26.31
2018-05-27T11:01:00.160Z,26.24
2018-05-27T11:01:59.916Z,26.22
2018-05-27T11:03:00.169Z,26.26
2018-05-27T11:04:00.169Z,26.31
2018-05-27T11:05:00.177Z,26.22
2018-05-27T11:06:00.320Z,26.42
2018-05-27T11:07:00.174Z,26.5
2018-05-27T11:08:00.178Z,26.42
2018-05-27T11:09:00.183Z,26.39
2018-05-27T11:10:00.245Z,26.3
2018-05-27T11:10:59.935Z,26.39
2018-05-27T11:12:00.193Z,26.47
2018-05-27T11:13:00.243Z,26.49
2018-05-27T11:13:59.943Z,26.45
2018-05-27T11:15:00.207Z,26.44
2018-05-27T11:16:00.210Z,26.31
2018-05-27T11:17:00.211Z,26.32
2018-05-27T11:17:59.957Z,26.42
2018-05-27T11:19:00.309Z,26.37
2018-05-27T11:19:59.967Z,26.34
2018-05-27T11:21:00.226Z,26.17
2018-05-27T11:22:00.037Z,26.04
2018-05-27T11:23:00.230Z,25.99
2018-05-27T11:24:00.233Z,25.84
2018-05-27T11:24:59.984Z,25.85
2018-05-27T11:26:00.012Z,25.89
2018-05-27T11:27:00.247Z,25.84
2018-05-27T11:28:00.250Z,25.89
2018-05-27T11:29:00.250Z,25.89
2018-05-27T11:30:00.475Z,25.86
2018-05-27T11:31:00.007Z,25.78
2018-05-27T11:32:00.003Z,25.63
2018-05-27T11:33:00.276Z,25.54
2018-05-27T11:34:00.266Z,25.37
2018-05-27T11:35:00.214Z,25.3
2018-05-27T11:36:00.273Z,25.17
2018-05-27T11:37:00.067Z,25.11
2018-05-27T11:38:00.024Z,24.97
2018-05-27T11:39:00.284Z,24.85
2018-05-27T11:40:00.574Z,24.85
2018-05-27T11:41:00.032Z,24.58
2018-05-27T11:42:00.294Z,24.54
2018-05-27T11:43:00.291Z,24.52
2018-05-27T11:44:00.044Z,24.51
2018-05-27T11:45:00.132Z,24.45
2018-05-27T11:46:00.045Z,24.52
2018-05-27T11:47:00.049Z,24.54
2018-05-27T11:48:00.511Z,24.56
2018-05-27T11:49:00.063Z,24.63
2018-05-27T11:50:00.052Z,24.74
2018-05-27T11:51:00.314Z,24.74
2018-05-27T11:52:00.058Z,24.85
2018-05-27T11:53:00.325Z,24.85
2018-05-27T11:54:00.069Z,25.02
2018-05-27T11:55:00.062Z,24.97
2018-05-27T11:56:00.325Z,24.94
2018-05-27T11:57:00.324Z,25.15
2018-05-27T11:58:00.344Z,25.24
2018-05-27T11:59:00.079Z,25.34
2018-05-27T12:00:00.426Z,25.47
2018-05-27T12:01:00.127Z,25.52
2018-05-27T12:02:00.390Z,25.62
2018-05-27T12:03:00.350Z,25.62
2018-05-27T12:04:00.092Z,25.7
2018-05-27T12:05:00.351Z,25.74
2018-05-27T12:06:00.359Z,25.97
2018-05-27T12:06:59.840Z,26.12
2018-05-27T12:08:00.105Z,26.34
2018-05-27T12:09:00.221Z,26.5
2018-05-27T12:10:00.118Z,26.56
2018-05-27T12:11:00.378Z,26.64
2018-05-27T12:11:59.859Z,26.74
2018-05-27T12:13:00.116Z,26.76
2018-05-27T12:14:00.125Z,26.78
2018-05-27T12:14:59.872Z,26.74
2018-05-27T12:16:00.480Z,26.76
2018-05-27T12:17:00.402Z,26.63
2018-05-27T12:18:00.394Z,26.76
2018-05-27T12:19:00.401Z,26.75
2018-05-27T12:19:59.895Z,26.78
2018-05-27T12:21:00.405Z,26.67
2018-05-27T12:22:00.409Z,26.71
2018-05-27T12:23:00.411Z,26.67
2018-05-27T12:24:00.188Z,26.61
2018-05-27T12:25:00.421Z,26.53
2018-05-27T12:26:00.423Z,26.6
2018-05-27T12:27:00.422Z,26.57
2018-05-27T12:28:00.436Z,26.6
2018-05-27T12:28:59.917Z,26.68
2018-05-27T12:30:00.755Z,26.76
2018-05-27T12:31:00.182Z,26.86
2018-05-27T12:32:00.188Z,26.81
2018-05-27T12:33:00.448Z,26.76
2018-05-27T12:33:59.937Z,26.52
2018-05-27T12:35:00.461Z,26.41
2018-05-27T12:36:00.205Z,26.37
2018-05-27T12:37:00.612Z,26.27
2018-05-27T12:38:00.460Z,26.2
2018-05-27T12:39:00.211Z,26.04
2018-05-27T12:40:00.471Z,26.06
2018-05-27T12:41:00.220Z,25.94
2018-05-27T12:42:00.220Z,25.78
2018-05-27T12:42:59.968Z,25.69
2018-05-27T12:44:00.230Z,25.49
2018-05-27T12:45:00.487Z,25.48
2018-05-27T12:46:00.246Z,25.29
2018-05-27T12:47:00.238Z,25.24
2018-05-27T12:48:00.496Z,25.09
2018-05-27T12:49:00.506Z,25.07
2018-05-27T12:50:00.503Z,24.86
2018-05-27T12:51:00.576Z,24.82
2018-05-27T12:52:00.296Z,24.74
2018-05-27T12:53:00.515Z,24.63
2018-05-27T12:54:00.520Z,24.46
2018-05-27T12:55:00.260Z,24.49